createdAt,value
2023-01-13T00:02:26.126Z,0.80
2023-01-13T00:04:53.685Z,0.40
2023-01-13T00:07:29.326Z,0.60
2023-01-13T00:10:10.196Z,0.63
2023-01-13T00:12:51.515Z,0.50
2023-01-13T00:15:25.560Z,0.60
2023-01-13T00:17:53.956Z,0.70
2023-01-13T00:20:27.504Z,0.50
2023-01-13T00:22:56.529Z,0.60
2023-01-13T00:25:30.521Z,0.50
2023-01-13T00:28:05.708Z,0.73
2023-01-13T00:30:40.487Z,0.40
2023-01-13T00:33:14.506Z,0.50
2023-01-13T00:35:43.958Z,0.40
2023-01-13T00:38:18.080Z,0.67
2023-01-13T00:40:45.510Z,0.33
2023-01-13T00:43:31.186Z,0.33
2023-01-13T00:46:06.094Z,0.50
2023-01-13T00:48:45.170Z,0.50
2023-01-13T00:51:19.477Z,0.60
2023-01-13T00:53:57.095Z,0.60
2023-01-13T00:56:39.649Z,0.50
2023-01-13T00:59:17.099Z,0.50
2023-01-13T01:01:51.128Z,0.77
2023-01-13T01:04:18.560Z,0.60
2023-01-13T01:06:54.108Z,0.53
2023-01-13T01:09:39.339Z,0.60
2023-01-13T01:12:07.905Z,0.50
2023-01-13T01:14:43.398Z,0.93
2023-01-13T01:17:12.576Z,0.50
2023-01-13T01:19:46.100Z,1.30
2023-01-13T01:22:22.439Z,1.80
2023-01-13T01:24:49.811Z,1.33
2023-01-13T01:27:23.461Z,0.40
2023-01-13T01:29:57.508Z,1.50
2023-01-13T01:32:28.424Z,1.20
2023-01-13T01:35:02.441Z,0.40
2023-01-13T01:37:38.970Z,0.60
2023-01-13T01:40:13.495Z,0.70
2023-01-13T01:43:07.861Z,0.60
2023-01-13T01:45:43.618Z,0.70
2023-01-13T01:48:13.660Z,0.70
2023-01-13T01:50:51.406Z,0.40
2023-01-13T01:53:30.480Z,0.60
2023-01-13T01:56:01.547Z,0.60
2023-01-13T01:58:52.901Z,0.60
2023-01-13T02:04:30.868Z,0.50
2023-01-13T02:07:04.874Z,0.50
2023-01-13T02:09:33.365Z,0.50
2023-01-13T02:12:25.895Z,0.67
2023-01-13T02:14:59.871Z,0.70
2023-01-13T02:17:39.860Z,0.60
2023-01-13T02:20:42.864Z,0.73
2023-01-13T02:23:47.730Z,0.47
2023-01-13T02:27:11.475Z,0.63
2023-01-13T02:30:23.761Z,0.87
2023-01-13T02:33:21.838Z,0.60
2023-01-13T02:35:57.368Z,1.07
2023-01-13T02:38:41.938Z,0.67
2023-01-13T02:41:50.954Z,0.90
2023-01-13T02:44:25.328Z,0.77
2023-01-13T02:47:16.965Z,0.90
2023-01-13T02:50:10.975Z,0.80
2023-01-13T02:52:54.944Z,0.90
2023-01-13T02:55:30.647Z,0.80
2023-01-13T02:58:09.296Z,0.97
2023-01-13T03:00:37.983Z,1.00
2023-01-13T03:03:18.335Z,0.77
2023-01-13T03:05:49.726Z,0.70
2023-01-13T03:08:46.306Z,1.00
2023-01-13T03:11:19.063Z,1.13
2023-01-13T03:14:05.920Z,1.17
2023-01-13T03:16:54.716Z,0.80
2023-01-13T03:19:45.641Z,0.90
2023-01-13T03:22:28.647Z,1.00
2023-01-13T03:25:13.659Z,0.90
2023-01-13T03:28:06.676Z,0.93
2023-01-13T03:30:44.697Z,1.13
2023-01-13T03:33:57.665Z,0.80
2023-01-13T03:36:34.651Z,0.80
2023-01-13T03:39:17.661Z,1.00
2023-01-13T03:41:57.425Z,0.70
2023-01-13T03:45:01.601Z,0.90
2023-01-13T03:47:39.253Z,1.13
2023-01-13T03:50:21.521Z,1.00
2023-01-13T03:53:00.175Z,1.00
2023-01-13T03:55:40.552Z,0.97
2023-01-13T03:58:19.419Z,0.73
2023-01-13T04:01:19.606Z,0.90
2023-01-13T04:04:22.543Z,1.00
2023-01-13T04:06:56.600Z,0.80
2023-01-13T04:09:38.046Z,0.73
2023-01-13T04:12:55.103Z,0.90
2023-01-13T04:15:25.072Z,0.70
2023-01-13T04:17:59.073Z,0.67
2023-01-13T04:20:33.284Z,1.30
2023-01-13T04:23:02.774Z,1.60
2023-01-13T04:25:36.806Z,1.00
2023-01-13T04:28:10.844Z,0.90
2023-01-13T04:30:45.905Z,0.73
2023-01-13T04:33:14.710Z,0.60
2023-01-13T04:35:49.788Z,0.60
2023-01-13T04:38:21.002Z,0.50
2023-01-13T04:40:55.800Z,0.70
2023-01-13T04:43:23.120Z,0.77
2023-01-13T04:45:50.614Z,1.00
2023-01-13T04:48:24.804Z,0.70
2023-01-13T04:50:52.092Z,0.53
2023-01-13T04:53:25.805Z,0.60
2023-01-13T04:55:53.125Z,0.63
2023-01-13T04:58:27.837Z,0.50
2023-01-13T05:01:01.845Z,0.57
2023-01-13T05:03:43.823Z,0.70
2023-01-13T05:06:24.806Z,0.60
2023-01-13T05:08:58.802Z,0.70
2023-01-13T05:11:52.811Z,0.50
2023-01-13T05:14:44.785Z,0.37
2023-01-13T05:17:20.561Z,0.50
2023-01-13T05:19:54.815Z,0.57
2023-01-13T05:22:41.035Z,0.50
2023-01-13T05:25:31.826Z,0.20
2023-01-13T05:28:06.799Z,0.17
2023-01-13T05:30:44.801Z,0.30
2023-01-13T05:33:14.996Z,0.30
2023-01-13T05:35:51.792Z,0.40
2023-01-13T05:38:19.213Z,0.40
2023-01-13T05:41:11.793Z,0.30
2023-01-13T05:43:39.193Z,0.50
2023-01-13T05:46:15.876Z,0.20
2023-01-13T05:48:43.795Z,0.20
2023-01-13T05:51:20.443Z,0.33
2023-01-13T05:53:47.952Z,0.23
2023-01-13T05:56:23.430Z,0.23
2023-01-13T05:58:57.450Z,0.20
2023-01-13T06:01:24.969Z,0.23
2023-01-13T06:03:59.585Z,0.20
2023-01-13T06:06:33.432Z,0.27
2023-01-13T06:09:03.488Z,0.33
2023-01-13T06:11:30.888Z,0.33
2023-01-13T06:14:05.485Z,0.47
2023-01-13T06:16:33.003Z,0.40
2023-01-13T06:19:07.478Z,0.20
2023-01-13T06:21:42.499Z,0.20
2023-01-13T06:24:17.484Z,0.30
2023-01-13T06:26:45.048Z,0.20
2023-01-13T06:29:21.465Z,0.20
2023-01-13T06:31:55.481Z,0.33
2023-01-13T06:34:23.155Z,0.10
2023-01-13T06:37:00.494Z,0.30
2023-01-13T06:39:37.473Z,0.10
2023-01-13T06:42:30.478Z,0.20
2023-01-13T06:44:57.950Z,0.30
2023-01-13T06:47:34.854Z,0.20
2023-01-13T06:50:14.141Z,0.30
2023-01-13T06:52:41.566Z,0.17
2023-01-13T06:55:15.162Z,0.20
2023-01-13T06:57:57.173Z,0.20
2023-01-13T07:00:34.163Z,0.20
2023-01-13T07:03:09.746Z,0.10
2023-01-13T07:05:45.138Z,0.20
2023-01-13T07:08:19.124Z,0.20
2023-01-13T07:10:46.551Z,0.23
2023-01-13T07:13:40.171Z,0.07
2023-01-13T07:16:09.098Z,0.10
2023-01-13T07:18:44.128Z,0.20
2023-01-13T07:21:25.416Z,0.10
2023-01-13T07:23:53.089Z,0.10
2023-01-13T07:26:27.408Z,0.23
2023-01-13T07:29:04.311Z,0.10
2023-01-13T07:31:32.889Z,0.20
2023-01-13T07:34:06.305Z,0.10
2023-01-13T07:36:40.346Z,0.13
2023-01-13T07:39:07.875Z,0.10
2023-01-13T07:42:00.299Z,0.20
2023-01-13T07:44:34.182Z,0.10
2023-01-13T07:47:08.103Z,0.20
2023-01-13T07:49:35.876Z,0.20
2023-01-13T07:52:10.100Z,0.20
2023-01-13T07:54:41.008Z,0.10
2023-01-13T07:57:16.085Z,0.10
2023-01-13T07:59:43.503Z,0.10
2023-01-13T08:02:21.312Z,0.07
2023-01-13T08:04:55.135Z,0.20
2023-01-13T08:07:29.067Z,0.20
2023-01-13T08:10:03.053Z,0.10
2023-01-13T08:12:57.639Z,0.23
2023-01-13T08:15:24.999Z,0.13
2023-01-13T08:17:58.680Z,0.07
2023-01-13T08:20:26.483Z,0.10
2023-01-13T08:23:07.751Z,0.50
2023-01-13T08:25:35.501Z,0.03
2023-01-13T08:28:09.524Z,0.10
2023-01-13T08:30:44.596Z,0.30
2023-01-13T08:33:13.387Z,0.10
2023-01-13T08:35:42.172Z,0.20
2023-01-13T08:38:16.507Z,0.00
2023-01-13T08:40:44.010Z,0.00
2023-01-13T08:43:18.474Z,0.13
2023-01-13T08:45:45.846Z,0.20
2023-01-13T08:48:23.404Z,0.30
2023-01-13T08:50:59.878Z,0.20
2023-01-13T08:53:27.504Z,0.20
2023-01-13T08:56:01.880Z,0.10
2023-01-13T08:58:29.344Z,0.10
2023-01-13T09:01:02.957Z,0.33
2023-01-13T09:03:36.861Z,0.20
2023-01-13T09:06:10.890Z,0.13
2023-01-13T09:08:44.904Z,0.50
2023-01-13T09:11:44.873Z,0.50
2023-01-13T09:14:12.235Z,0.20
2023-01-13T09:16:47.881Z,0.47
2023-01-13T09:19:15.374Z,0.30
2023-01-13T09:21:43.288Z,0.40
2023-01-13T09:24:17.851Z,0.43
2023-01-13T09:26:45.412Z,0.33
2023-01-13T09:29:21.993Z,0.60
2023-01-13T09:31:51.523Z,0.30
2023-01-13T09:34:45.511Z,0.50
2023-01-13T09:37:13.005Z,0.30
2023-01-13T09:39:47.513Z,0.57
2023-01-13T09:42:47.577Z,0.50
2023-01-13T09:45:39.538Z,0.30
2023-01-13T09:48:27.550Z,0.43
2023-01-13T09:51:16.569Z,0.60
2023-01-13T09:54:27.521Z,0.47
2023-01-13T09:56:54.986Z,0.40
2023-01-13T09:59:28.504Z,0.40
2023-01-13T10:02:17.532Z,0.40
2023-01-13T10:05:16.238Z,0.47
2023-01-13T10:08:16.546Z,0.70
2023-01-13T10:10:48.040Z,0.50
2023-01-13T10:13:27.574Z,0.63
2023-01-13T10:16:30.073Z,2.00
2023-01-13T10:19:20.605Z,1.20
2023-01-13T10:22:18.741Z,1.27
2023-01-13T10:25:26.607Z,1.67
2023-01-13T10:28:10.311Z,0.30
2023-01-13T10:30:42.085Z,0.60
2023-01-13T10:33:28.007Z,0.43
2023-01-13T10:36:10.532Z,0.40
2023-01-13T10:38:46.587Z,0.70
2023-01-13T10:41:20.478Z,0.57
2023-01-13T10:44:11.465Z,0.60
2023-01-13T10:46:59.505Z,0.60
2023-01-13T10:49:38.699Z,0.90
2023-01-13T10:52:38.131Z,0.70
2023-01-13T10:55:34.128Z,0.53
2023-01-13T10:58:28.228Z,1.00
2023-01-13T11:01:13.126Z,0.60
2023-01-13T11:03:49.354Z,0.50
2023-01-13T11:06:37.125Z,0.80
2023-01-13T11:09:17.955Z,0.57
2023-01-13T11:11:54.093Z,0.67
2023-01-13T11:14:37.072Z,0.77
2023-01-13T11:17:30.102Z,0.93
2023-01-13T11:20:46.070Z,1.00
2023-01-13T11:23:52.157Z,1.23
2023-01-13T11:26:33.108Z,1.00
2023-01-13T11:29:18.000Z,0.90
2023-01-13T11:31:57.129Z,1.07
2023-01-13T11:34:46.179Z,0.97
2023-01-13T11:37:43.135Z,0.60
2023-01-13T11:40:38.887Z,0.87
2023-01-13T11:43:39.369Z,1.00
2023-01-13T11:46:09.858Z,1.20
2023-01-13T11:48:48.132Z,1.33
2023-01-13T11:51:31.210Z,1.13
2023-01-13T11:54:26.109Z,1.33
2023-01-13T11:57:38.118Z,6.47
2023-01-13T12:00:47.093Z,1.87
2023-01-13T12:03:59.373Z,0.93
2023-01-13T12:06:44.171Z,0.90
2023-01-13T12:09:27.541Z,0.90
2023-01-13T12:12:29.128Z,1.20
2023-01-13T12:15:24.195Z,1.10
2023-01-13T12:18:51.406Z,1.20
2023-01-13T12:21:34.262Z,0.90
2023-01-13T12:24:52.096Z,1.43
2023-01-13T12:27:47.368Z,1.17
2023-01-13T12:30:44.111Z,1.70
2023-01-13T12:33:48.430Z,1.47
2023-01-13T12:36:29.120Z,1.00
2023-01-13T12:39:02.356Z,1.37
2023-01-13T12:42:10.361Z,1.20
2023-01-13T12:44:38.185Z,1.40
2023-01-13T12:47:32.470Z,1.40
2023-01-13T12:50:29.134Z,1.43
2023-01-13T12:53:06.140Z,1.70
2023-01-13T12:55:41.124Z,1.50
2023-01-13T12:58:19.250Z,1.40
2023-01-13T13:00:48.892Z,1.40
2023-01-13T13:03:36.167Z,1.47
2023-01-13T13:06:36.256Z,1.50
2023-01-13T13:09:25.454Z,0.93
2023-01-13T13:11:58.758Z,1.53
2023-01-13T13:14:48.170Z,1.50
2023-01-13T13:17:39.143Z,1.20
2023-01-13T13:21:04.256Z,1.13
2023-01-13T13:23:50.832Z,1.13
2023-01-13T13:26:20.071Z,1.60
2023-01-13T13:29:27.881Z,1.40
2023-01-13T13:32:01.430Z,1.33
2023-01-13T13:34:58.855Z,1.03
2023-01-13T13:37:37.865Z,0.83
2023-01-13T13:40:34.901Z,0.77
2023-01-13T13:43:28.826Z,0.80
2023-01-13T13:46:14.849Z,0.90
2023-01-13T13:49:01.849Z,1.00
2023-01-13T13:51:46.855Z,0.77
2023-01-13T13:54:38.090Z,0.67
2023-01-13T13:57:05.635Z,0.73
2023-01-13T13:59:40.944Z,0.60
2023-01-13T14:02:38.832Z,0.63
2023-01-13T14:05:28.891Z,0.70
2023-01-13T14:08:16.844Z,0.73
2023-01-13T14:10:56.841Z,0.73
2023-01-13T14:13:25.237Z,0.40
2023-01-13T14:16:13.920Z,0.30
2023-01-13T14:18:57.299Z,0.30
2023-01-13T14:21:38.335Z,0.20
2023-01-13T14:24:16.640Z,0.73
2023-01-13T14:26:50.285Z,0.63
2023-01-13T14:29:31.501Z,0.50
2023-01-13T14:32:10.410Z,0.40
2023-01-13T14:34:40.294Z,0.23
2023-01-13T14:37:34.237Z,0.80
2023-01-13T14:40:04.055Z,0.53
2023-01-13T14:42:41.835Z,0.90
2023-01-13T14:45:31.555Z,0.77
2023-01-13T14:48:01.065Z,0.90
2023-01-13T14:50:40.592Z,1.40
2023-01-13T14:53:47.748Z,1.27
2023-01-13T14:56:37.163Z,1.03
2023-01-13T14:59:46.458Z,1.57
2023-01-13T15:03:00.070Z,1.00
2023-01-13T15:05:45.475Z,1.10
2023-01-13T15:08:14.191Z,1.50
2023-01-13T15:11:01.443Z,1.00
2023-01-13T15:13:38.694Z,1.30
2023-01-13T15:16:27.468Z,1.47
2023-01-13T15:18:56.402Z,1.07
2023-01-13T15:21:25.145Z,1.30
2023-01-13T15:23:59.430Z,1.30
2023-01-13T15:26:32.479Z,1.50
2023-01-13T15:29:10.462Z,2.07
2023-01-13T15:31:47.076Z,2.00
2023-01-13T15:34:14.587Z,2.50
2023-01-13T15:36:49.029Z,2.40
2023-01-13T15:39:23.050Z,2.10
2023-01-13T15:42:09.025Z,1.63
2023-01-13T15:45:01.008Z,1.87
2023-01-13T15:47:35.237Z,1.63
2023-01-13T15:50:02.663Z,1.87
2023-01-13T15:52:30.040Z,2.27
2023-01-13T15:55:03.970Z,1.60
2023-01-13T15:57:35.959Z,1.90
2023-01-13T16:00:22.978Z,1.83
2023-01-13T16:02:51.110Z,2.07
2023-01-13T16:05:32.009Z,2.27
2023-01-13T16:07:59.401Z,1.60
2023-01-13T16:10:35.034Z,2.60
2023-01-13T16:13:09.022Z,1.50
2023-01-13T16:16:07.040Z,2.47
2023-01-13T16:18:34.415Z,2.00
2023-01-13T16:21:03.933Z,2.50
2023-01-13T16:23:39.213Z,1.73
2023-01-13T16:26:23.167Z,3.00
2023-01-13T16:28:59.235Z,2.50
2023-01-13T16:31:39.279Z,2.00
2023-01-13T16:34:06.911Z,1.57
2023-01-13T16:36:45.483Z,2.73
2023-01-13T16:39:21.585Z,2.30
2023-01-13T16:41:59.327Z,1.60
2023-01-13T16:44:26.670Z,2.17
2023-01-13T16:47:00.280Z,2.07
2023-01-13T16:49:31.658Z,1.50
2023-01-13T16:52:05.814Z,1.70
2023-01-13T16:54:33.481Z,1.80
2023-01-13T16:57:07.862Z,1.80
2023-01-13T16:59:41.837Z,1.57
2023-01-13T17:02:21.247Z,2.17
2023-01-13T17:04:59.535Z,1.30
2023-01-13T17:07:26.888Z,1.67
2023-01-13T17:10:02.645Z,2.27
2023-01-13T17:12:36.618Z,1.13
2023-01-13T17:15:04.191Z,1.50
2023-01-13T17:17:37.660Z,1.30
2023-01-13T17:20:05.656Z,1.60
2023-01-13T17:23:04.735Z,1.47
2023-01-13T17:25:32.254Z,1.50
2023-01-13T17:28:24.746Z,1.50
2023-01-13T17:30:59.746Z,1.30
2023-01-13T17:33:33.627Z,1.50
2023-01-13T17:36:02.433Z,1.57
2023-01-13T17:38:36.714Z,1.60
2023-01-13T17:41:11.744Z,1.77
2023-01-13T17:43:45.698Z,2.07
2023-01-13T17:46:25.636Z,1.83
2023-01-13T17:48:55.427Z,1.50
2023-01-13T17:51:31.557Z,1.40
2023-01-13T17:53:58.902Z,2.37
2023-01-13T17:56:32.485Z,2.70
2023-01-13T17:58:59.847Z,1.47
2023-01-13T18:01:37.628Z,1.53
2023-01-13T18:04:34.487Z,1.67
2023-01-13T18:07:05.549Z,1.00
2023-01-13T18:09:39.873Z,1.73
2023-01-13T18:12:13.878Z,1.50
2023-01-13T18:14:43.680Z,1.20
2023-01-13T18:17:17.888Z,1.83
2023-01-13T18:20:03.982Z,1.13
2023-01-13T18:22:56.887Z,1.33
2023-01-13T18:25:49.887Z,2.00
2023-01-13T18:28:29.198Z,1.53
2023-01-13T18:31:07.075Z,1.93
2023-01-13T18:33:42.428Z,1.13
2023-01-13T18:36:12.165Z,1.60
2023-01-13T18:38:46.060Z,1.43
2023-01-13T18:41:40.698Z,1.80
2023-01-13T18:44:10.350Z,1.77
2023-01-13T18:46:44.254Z,1.70
2023-01-13T18:49:11.552Z,1.50
2023-01-13T18:51:46.236Z,1.53
2023-01-13T18:54:17.245Z,1.57
2023-01-13T18:56:50.747Z,1.40
2023-01-13T18:59:18.410Z,2.00
2023-01-13T19:01:52.759Z,1.90
2023-01-13T19:04:26.842Z,1.60
2023-01-13T19:07:07.269Z,1.70
2023-01-13T19:09:34.638Z,2.00
2023-01-13T19:12:11.995Z,1.77
2023-01-13T19:14:42.044Z,1.47
2023-01-13T19:17:18.996Z,2.07
2023-01-13T19:19:49.037Z,10.90
2023-01-13T19:22:29.004Z,1.93
2023-01-13T19:25:04.009Z,1.73
2023-01-13T19:27:37.994Z,1.90
2023-01-13T19:30:06.061Z,2.07
2023-01-13T19:32:39.988Z,2.03
2023-01-13T19:35:07.775Z,2.13
2023-01-13T19:37:43.037Z,1.93
2023-01-13T19:40:20.029Z,1.80
2023-01-13T19:43:13.020Z,2.13
2023-01-13T19:45:40.334Z,2.27
2023-01-13T19:48:15.031Z,1.87
2023-01-13T19:50:42.529Z,1.83
2023-01-13T19:53:24.078Z,2.00
2023-01-13T19:55:51.582Z,1.73
2023-01-13T19:58:25.994Z,2.20
2023-01-13T20:00:58.352Z,1.87
2023-01-13T20:03:42.470Z,2.00
2023-01-13T20:06:24.407Z,1.60
2023-01-13T20:08:51.964Z,2.20
2023-01-13T20:11:41.439Z,1.87
2023-01-13T20:14:25.960Z,2.30
2023-01-13T20:16:53.362Z,1.70
2023-01-13T20:19:26.973Z,1.60
2023-01-13T20:21:54.326Z,2.00
2023-01-13T20:24:27.925Z,1.80
2023-01-13T20:27:01.965Z,2.27
2023-01-13T20:29:42.411Z,2.03
2023-01-13T20:32:16.201Z,2.87
2023-01-13T20:34:50.170Z,1.60
2023-01-13T20:37:17.593Z,1.73
2023-01-13T20:39:53.183Z,2.30
2023-01-13T20:42:29.460Z,1.60
2023-01-13T20:45:07.172Z,5.80
2023-01-13T20:47:34.525Z,1.70
2023-01-13T20:50:09.361Z,1.57
2023-01-13T20:52:44.281Z,1.60
2023-01-13T20:55:13.140Z,2.10
2023-01-13T20:57:50.313Z,1.80
2023-01-13T21:00:18.273Z,1.23
2023-01-13T21:02:52.160Z,2.07
2023-01-13T21:05:40.230Z,2.77
2023-01-13T21:08:14.201Z,2.43
2023-01-13T21:10:48.197Z,1.63
2023-01-13T21:13:36.456Z,2.33
2023-01-13T21:16:10.912Z,2.00
2023-01-13T21:19:03.870Z,1.70
2023-01-13T21:21:31.193Z,1.40
2023-01-13T21:24:07.832Z,1.90
2023-01-13T21:26:35.331Z,2.00
2023-01-13T21:29:10.852Z,2.33
2023-01-13T21:31:38.237Z,1.70
2023-01-13T21:34:11.853Z,1.90
2023-01-13T21:36:41.120Z,2.50
2023-01-13T21:39:15.957Z,1.83
2023-01-13T21:42:08.935Z,2.23
2023-01-13T21:44:55.145Z,1.87
2023-01-13T21:47:47.991Z,2.70
2023-01-13T21:50:22.910Z,2.33
2023-01-13T21:53:01.949Z,2.20
2023-01-13T21:55:35.966Z,2.30
2023-01-13T21:58:20.926Z,1.87
2023-01-13T22:00:56.166Z,3.07
2023-01-13T22:03:29.921Z,2.10
2023-01-13T22:06:05.445Z,2.20
2023-01-13T22:08:42.456Z,2.30
2023-01-13T22:11:09.813Z,2.47
2023-01-13T22:14:02.503Z,2.60
2023-01-13T22:16:30.345Z,2.60
2023-01-13T22:19:04.558Z,3.07
2023-01-13T22:21:38.525Z,3.03
2023-01-13T22:24:06.199Z,2.37
2023-01-13T22:26:40.425Z,1.93
2023-01-13T22:29:07.881Z,2.90
2023-01-13T22:31:41.498Z,2.77
2023-01-13T22:34:11.770Z,2.13
2023-01-13T22:36:45.463Z,3.60
2023-01-13T22:39:19.430Z,2.70
2023-01-13T22:41:53.440Z,2.20
2023-01-13T22:44:21.726Z,2.67
2023-01-13T22:46:58.291Z,2.47
2023-01-13T22:49:25.676Z,2.20
2023-01-13T22:52:00.289Z,3.00
2023-01-13T22:54:27.663Z,2.40
2023-01-13T22:57:01.300Z,2.50
2023-01-13T22:59:28.689Z,2.53
2023-01-13T23:02:02.255Z,2.40
2023-01-13T23:04:36.345Z,2.70
2023-01-13T23:07:17.282Z,2.13
2023-01-13T23:09:51.293Z,2.77
2023-01-13T23:12:18.616Z,2.90
2023-01-13T23:14:52.275Z,2.90
2023-01-13T23:17:19.619Z,2.30
2023-01-13T23:19:53.255Z,2.27
2023-01-13T23:22:27.279Z,2.87
2023-01-13T23:25:04.296Z,2.97
2023-01-13T23:27:38.442Z,2.37
2023-01-13T23:30:15.263Z,2.33
2023-01-13T23:32:42.592Z,2.53
2023-01-13T23:35:16.295Z,2.63
2023-01-13T23:37:44.771Z,2.47
2023-01-13T23:40:20.339Z,2.43
2023-01-13T23:42:47.659Z,2.40
2023-01-13T23:45:21.292Z,2.30
2023-01-13T23:47:48.637Z,2.37
2023-01-13T23:50:16.276Z,2.20
2023-01-13T23:52:50.267Z,2.17
2023-01-13T23:55:17.612Z,2.30
2023-01-13T23:57:51.269Z,2.53
